createdAt,value
2018-07-08T00:01:25.730Z,93.64
2018-07-08T00:03:57.343Z,93.89
2018-07-08T00:06:28.603Z,94.01
2018-07-08T00:08:59.760Z,93.53
2018-07-08T00:11:30.892Z,93.33
2018-07-08T00:14:02.029Z,94.64
2018-07-08T00:16:33.297Z,94.79
2018-07-08T00:19:04.487Z,95.60
2018-07-08T00:21:35.534Z,95.01
2018-07-08T00:24:06.950Z,95.15
2018-07-08T00:26:38.284Z,96.08
2018-07-08T00:29:09.482Z,95.82
2018-07-08T00:31:40.306Z,96.21
2018-07-08T00:34:11.619Z,95.40
2018-07-08T00:36:42.686Z,95.77
2018-07-08T00:39:14.011Z,95.70
2018-07-08T00:41:45.094Z,96.23
2018-07-08T00:44:16.384Z,96.09
2018-07-08T00:46:47.501Z,96.33
2018-07-08T00:49:18.399Z,95.69
2018-07-08T00:51:49.593Z,96.69
2018-07-08T00:54:21.204Z,95.71
2018-07-08T00:56:52.461Z,94.79
2018-07-08T00:59:25.254Z,94.79
2018-07-08T01:01:56.340Z,95.36
2018-07-08T01:04:27.421Z,95.11
2018-07-08T01:06:58.755Z,94.63
2018-07-08T01:09:30.152Z,94.52
2018-07-08T01:12:01.170Z,95.24
2018-07-08T01:14:33.074Z,94.63
2018-07-08T01:17:04.483Z,94.29
2018-07-08T01:19:35.853Z,95.09
2018-07-08T01:22:07.838Z,94.38
2018-07-08T01:24:39.134Z,94.19
2018-07-08T01:27:10.758Z,94.25
2018-07-08T01:29:42.582Z,94.61
2018-07-08T01:32:13.846Z,94.47
2018-07-08T01:34:45.093Z,94.09
2018-07-08T01:37:17.432Z,93.78
2018-07-08T01:39:48.723Z,94.87
2018-07-08T01:42:19.754Z,94.83
2018-07-08T01:44:51.070Z,94.81
2018-07-08T01:47:22.261Z,94.50
2018-07-08T01:49:53.814Z,93.98
2018-07-08T01:52:25.980Z,94.57
2018-07-08T01:54:58.056Z,94.49
2018-07-08T01:57:29.211Z,94.20
2018-07-08T02:00:01.500Z,94.20
2018-07-08T02:02:33.729Z,93.60
2018-07-08T02:05:05.494Z,94.19
2018-07-08T02:07:36.662Z,95.54
2018-07-08T02:10:08.732Z,95.46
2018-07-08T02:12:39.771Z,96.18
2018-07-08T02:15:12.050Z,96.28
2018-07-08T02:17:45.695Z,95.71
2018-07-08T02:20:17.079Z,96.63
2018-07-08T02:22:48.209Z,96.85
2018-07-08T02:25:19.796Z,96.56
2018-07-08T02:27:51.058Z,96.37
2018-07-08T02:30:22.259Z,96.51
2018-07-08T02:32:53.260Z,96.69
2018-07-08T02:35:25.203Z,97.54
2018-07-08T02:37:56.400Z,97.97
2018-07-08T02:40:27.568Z,98.58
2018-07-08T02:42:58.679Z,98.87
2018-07-08T02:45:29.995Z,99.01
2018-07-08T02:48:01.717Z,99.50
2018-07-08T02:50:32.804Z,100.00
2018-07-08T02:53:04.134Z,100.00
2018-07-08T02:55:35.452Z,100.00
2018-07-08T02:58:06.427Z,100.00
2018-07-08T03:00:37.788Z,100.00
2018-07-08T03:03:08.710Z,100.00
2018-07-08T03:05:41.195Z,100.00
2018-07-08T03:08:12.270Z,100.00
2018-07-08T03:10:43.519Z,100.00
2018-07-08T03:13:14.620Z,100.00
2018-07-08T03:15:45.772Z,100.00
2018-07-08T03:18:17.447Z,100.00
2018-07-08T03:20:49.657Z,100.00
2018-07-08T03:23:20.782Z,100.00
2018-07-08T03:25:52.186Z,100.00
2018-07-08T03:28:23.460Z,100.00
2018-07-08T03:30:54.717Z,100.00
2018-07-08T03:33:26.076Z,100.00
2018-07-08T03:35:57.415Z,100.00
2018-07-08T03:38:29.643Z,100.00
2018-07-08T03:41:00.981Z,100.00
2018-07-08T03:43:32.141Z,100.00
2018-07-08T03:46:04.070Z,100.00
2018-07-08T03:48:35.549Z,100.00
2018-07-08T03:51:06.566Z,100.00
2018-07-08T03:53:37.610Z,100.00
2018-07-08T03:56:10.097Z,100.00
2018-07-08T03:58:41.238Z,100.00
2018-07-08T04:01:13.218Z,100.00
2018-07-08T04:03:44.535Z,100.00
2018-07-08T04:06:16.769Z,100.00
2018-07-08T04:08:47.899Z,100.00
2018-07-08T04:11:18.966Z,100.00
2018-07-08T04:13:50.673Z,100.00
2018-07-08T04:16:21.845Z,100.00
2018-07-08T04:18:52.885Z,100.00
2018-07-08T04:21:23.972Z,100.00
2018-07-08T04:23:55.239Z,100.00
2018-07-08T04:26:27.158Z,100.00
2018-07-08T04:28:58.219Z,100.00
2018-07-08T04:31:30.392Z,100.00
2018-07-08T04:34:01.762Z,100.00
2018-07-08T04:36:32.853Z,100.00
2018-07-08T04:39:04.692Z,100.00
2018-07-08T04:41:37.609Z,100.00
2018-07-08T04:44:09.214Z,100.00
2018-07-08T04:46:40.396Z,100.00
2018-07-08T04:49:11.445Z,100.00
2018-07-08T04:51:42.582Z,100.00
2018-07-08T04:54:15.036Z,100.00
2018-07-08T04:56:45.905Z,100.00
2018-07-08T04:59:16.937Z,100.00
2018-07-08T05:01:48.117Z,100.00
2018-07-08T05:04:19.227Z,100.00
2018-07-08T05:06:50.506Z,100.00
2018-07-08T05:09:22.233Z,100.00
2018-07-08T05:11:53.401Z,100.00
2018-07-08T05:14:24.719Z,100.00
2018-07-08T05:16:55.695Z,100.00
2018-07-08T05:19:26.800Z,100.00
2018-07-08T05:21:58.952Z,100.00
2018-07-08T05:24:30.025Z,100.00
2018-07-08T05:27:02.575Z,100.00
2018-07-08T05:29:33.544Z,100.00
2018-07-08T05:32:04.824Z,100.00
2018-07-08T05:34:36.089Z,100.00
2018-07-08T05:37:07.680Z,100.00
2018-07-08T05:39:39.056Z,100.00
2018-07-08T05:42:10.465Z,100.00
2018-07-08T05:44:41.453Z,100.00
2018-07-08T05:47:12.576Z,99.32
2018-07-08T05:49:43.564Z,98.90
2018-07-08T05:52:15.208Z,98.26
2018-07-08T05:54:46.393Z,98.37
2018-07-08T05:57:17.437Z,98.16
2018-07-08T05:59:49.486Z,97.72
2018-07-08T06:04:58.993Z,97.55
2018-07-08T06:07:29.983Z,96.15
2018-07-08T06:10:01.018Z,94.75
2018-07-08T06:12:32.083Z,93.80
2018-07-08T06:15:03.473Z,94.06
2018-07-08T06:17:34.802Z,93.31
2018-07-08T06:20:09.281Z,92.38
2018-07-08T06:22:40.867Z,91.62
2018-07-08T06:25:12.518Z,91.10
2018-07-08T06:27:43.458Z,90.70
2018-07-08T06:30:14.773Z,90.76
2018-07-08T06:32:45.730Z,87.98
2018-07-08T06:35:17.646Z,88.11
2018-07-08T06:37:48.632Z,88.88
2018-07-08T06:40:20.662Z,87.69
2018-07-08T06:42:52.091Z,87.57
2018-07-08T06:45:23.313Z,88.17
2018-07-08T06:47:54.857Z,87.76
2018-07-08T06:50:26.100Z,86.52
2018-07-08T06:52:57.082Z,84.31
2018-07-08T06:55:28.599Z,82.66
2018-07-08T06:57:59.661Z,83.62
2018-07-08T07:00:30.759Z,82.22
2018-07-08T07:03:02.639Z,81.98
2018-07-08T07:05:35.056Z,80.03
2018-07-08T07:08:06.291Z,80.51
2018-07-08T07:10:38.526Z,80.48
2018-07-08T07:13:09.677Z,79.38
2018-07-08T07:15:41.064Z,79.56
2018-07-08T07:18:12.130Z,77.57
2018-07-08T07:20:43.504Z,79.43
2018-07-08T07:23:14.721Z,79.08
2018-07-08T07:25:45.801Z,79.39
2018-07-08T07:28:17.174Z,82.15
2018-07-08T07:30:48.311Z,81.39
2018-07-08T07:33:19.472Z,78.36
2018-07-08T07:35:50.635Z,79.02
2018-07-08T07:38:21.617Z,77.22
2018-07-08T07:40:54.214Z,76.74
2018-07-08T07:43:25.689Z,75.22
2018-07-08T07:45:57.114Z,73.49
2018-07-08T07:48:28.395Z,74.23
2018-07-08T07:51:00.197Z,74.65
2018-07-08T07:53:31.350Z,74.76
2018-07-08T07:56:02.623Z,73.84
2018-07-08T07:58:33.988Z,75.10
2018-07-08T08:01:05.518Z,75.77
2018-07-08T08:03:36.724Z,75.49
2018-07-08T08:06:07.958Z,74.73
2018-07-08T08:08:39.538Z,75.18
2018-07-08T08:11:10.637Z,73.72
2018-07-08T08:14:03.831Z,70.13
2018-07-08T08:16:35.111Z,70.77
2018-07-08T08:19:06.495Z,70.46
2018-07-08T08:21:37.613Z,73.35
2018-07-08T08:24:09.432Z,72.69
2018-07-08T08:26:41.883Z,72.02
2018-07-08T08:29:13.133Z,69.07
2018-07-08T08:31:45.240Z,67.28
2018-07-08T08:34:50.903Z,67.15
2018-07-08T08:37:23.381Z,68.04
2018-07-08T08:39:54.972Z,64.77
2018-07-08T08:42:26.165Z,61.94
2018-07-08T08:44:58.763Z,58.14
2018-07-08T08:47:30.497Z,59.58
2018-07-08T08:50:01.927Z,62.60
2018-07-08T08:52:33.097Z,62.07
2018-07-08T08:55:04.278Z,62.03
2018-07-08T08:57:35.429Z,65.25
2018-07-08T09:00:12.424Z,65.29
2018-07-08T09:02:44.289Z,63.19
2018-07-08T09:05:15.941Z,61.70
2018-07-08T09:07:47.263Z,61.65
2018-07-08T09:10:19.540Z,59.15
2018-07-08T09:12:51.347Z,59.68
2018-07-08T09:15:22.411Z,60.74
2018-07-08T09:17:54.184Z,59.85
2018-07-08T09:20:26.724Z,58.33
2018-07-08T09:22:57.748Z,55.72
2018-07-08T09:25:29.139Z,57.54
2018-07-08T09:28:05.705Z,59.51
2018-07-08T09:30:39.712Z,59.17
2018-07-08T09:33:11.667Z,57.85
2018-07-08T09:35:44.066Z,59.81
2018-07-08T09:38:15.478Z,61.09
2018-07-08T09:40:47.741Z,61.90
2018-07-08T09:43:19.145Z,58.77
2018-07-08T09:45:51.081Z,58.05
2018-07-08T09:48:23.837Z,55.86
2018-07-08T09:50:55.947Z,55.42
2018-07-08T09:53:31.369Z,56.16
2018-07-08T09:56:03.031Z,55.07
2018-07-08T09:58:36.220Z,56.37
2018-07-08T10:01:09.157Z,57.39
2018-07-08T10:03:42.608Z,58.11
2018-07-08T10:06:15.553Z,57.17
2018-07-08T10:08:47.120Z,55.75
2018-07-08T10:11:18.454Z,56.49
2018-07-08T10:13:50.865Z,56.21
2018-07-08T10:16:22.477Z,54.93
2018-07-08T10:18:55.546Z,58.21
2018-07-08T10:21:26.949Z,55.03
2018-07-08T10:23:58.481Z,54.38
2018-07-08T10:26:31.281Z,52.84
2018-07-08T10:29:13.514Z,53.77
2018-07-08T10:31:49.552Z,51.41
2018-07-08T10:34:22.489Z,50.21
2018-07-08T10:36:53.669Z,49.30
2018-07-08T10:39:25.128Z,50.71
2018-07-08T10:41:56.459Z,49.39
2018-07-08T10:44:27.499Z,50.15
2018-07-08T10:46:59.094Z,50.81
2018-07-08T10:49:30.579Z,50.97
2018-07-08T10:52:01.560Z,51.44
2018-07-08T10:54:32.655Z,52.81
2018-07-08T10:57:04.315Z,54.29
2018-07-08T10:59:37.028Z,53.55
2018-07-08T11:02:08.708Z,52.79
2018-07-08T11:04:39.773Z,53.69
2018-07-08T11:07:10.869Z,53.07
2018-07-08T11:09:42.528Z,52.20
2018-07-08T11:12:13.759Z,51.73
2018-07-08T11:14:45.748Z,51.61
2018-07-08T11:17:16.883Z,49.88
2018-07-08T11:19:48.217Z,51.30
2018-07-08T11:22:19.342Z,51.75
2018-07-08T11:24:50.721Z,53.89
2018-07-08T11:27:21.793Z,53.98
2018-07-08T11:29:53.064Z,52.88
2018-07-08T11:32:24.450Z,55.58
2018-07-08T11:34:55.631Z,56.54
2018-07-08T11:37:27.156Z,56.43
2018-07-08T11:39:58.272Z,57.04
2018-07-08T11:42:29.587Z,58.83
2018-07-08T11:45:00.654Z,60.62
2018-07-08T11:47:32.546Z,60.93
2018-07-08T11:50:03.812Z,61.60
2018-07-08T11:52:35.097Z,62.01
2018-07-08T11:55:06.174Z,62.54
2018-07-08T11:57:39.960Z,64.86
2018-07-08T12:00:16.091Z,63.93
2018-07-08T12:02:48.651Z,61.38
2018-07-08T12:05:21.936Z,61.69
2018-07-08T12:07:53.868Z,59.72
2018-07-08T12:10:25.094Z,63.25
2018-07-08T12:12:56.556Z,65.43
2018-07-08T12:15:27.556Z,71.34
2018-07-08T12:17:58.700Z,75.57
2018-07-08T12:20:30.330Z,76.44
2018-07-08T12:23:02.558Z,79.38
2018-07-08T12:25:33.902Z,83.60
2018-07-08T12:28:06.590Z,83.67
2018-07-08T12:30:37.781Z,83.39
2018-07-08T12:33:10.307Z,85.36
2018-07-08T12:35:41.723Z,85.99
2018-07-08T12:38:12.899Z,86.69
2018-07-08T12:40:44.140Z,88.55
2018-07-08T12:43:15.634Z,83.72
2018-07-08T12:45:47.930Z,80.96
2018-07-08T12:48:19.488Z,83.28
2018-07-08T12:50:50.923Z,74.90
2018-07-08T12:53:23.734Z,72.25
2018-07-08T12:55:58.545Z,71.77
2018-07-08T12:58:29.721Z,68.84
2018-07-08T13:01:03.093Z,68.69
2018-07-08T13:03:36.793Z,71.72
2018-07-08T13:06:08.658Z,72.29
2018-07-08T13:08:40.742Z,70.63
2018-07-08T13:11:12.037Z,70.06
2018-07-08T13:13:43.540Z,70.09
2018-07-08T13:16:15.500Z,71.59
2018-07-08T13:18:46.852Z,74.96
2018-07-08T13:21:18.877Z,77.96
2018-07-08T13:23:50.046Z,79.30
2018-07-08T13:26:21.299Z,80.03
2018-07-08T13:28:52.648Z,79.44
2018-07-08T13:31:24.982Z,76.37
2018-07-08T13:33:56.336Z,73.21
2018-07-08T13:36:27.725Z,71.35
2018-07-08T13:38:58.926Z,66.34
2018-07-08T13:41:30.253Z,66.21
2018-07-08T13:44:01.868Z,68.49
2018-07-08T13:46:33.210Z,68.29
2018-07-08T13:49:05.032Z,67.28
2018-07-08T13:51:37.681Z,64.12
2018-07-08T13:54:08.863Z,65.40
2018-07-08T13:56:40.119Z,64.24
2018-07-08T13:59:11.225Z,65.09
2018-07-08T14:01:44.230Z,66.33
2018-07-08T14:04:16.740Z,63.44
2018-07-08T14:06:47.778Z,67.09
2018-07-08T14:09:19.658Z,63.13
2018-07-08T14:11:51.780Z,62.21
2018-07-08T14:14:24.649Z,64.47
2018-07-08T14:16:55.914Z,65.32
2018-07-08T14:19:27.012Z,62.83
2018-07-08T14:21:58.294Z,66.13
2018-07-08T14:24:29.700Z,67.11
2018-07-08T14:27:01.389Z,70.81
2018-07-08T14:29:32.850Z,74.24
2018-07-08T14:32:03.747Z,71.57
2018-07-08T14:34:36.840Z,72.21
2018-07-08T14:37:08.467Z,71.96
2018-07-08T14:39:41.881Z,73.90
2018-07-08T14:42:13.334Z,74.47
2018-07-08T14:44:45.899Z,79.41
2018-07-08T14:47:18.202Z,82.17
2018-07-08T14:49:49.204Z,83.16
2018-07-08T14:52:20.686Z,83.29
2018-07-08T14:54:54.205Z,84.31
2018-07-08T14:57:26.363Z,85.30
2018-07-08T14:59:59.253Z,85.88
2018-07-08T15:02:32.244Z,85.18
2018-07-08T15:05:05.017Z,86.58
2018-07-08T15:07:36.487Z,90.69
2018-07-08T15:10:08.224Z,90.69
2018-07-08T15:12:39.829Z,91.50
2018-07-08T15:15:12.300Z,93.15
2018-07-08T15:17:43.341Z,92.84
2018-07-08T15:20:18.447Z,92.49
2018-07-08T15:22:49.395Z,92.41
2018-07-08T15:25:20.565Z,93.56
2018-07-08T15:27:51.767Z,92.40
2018-07-08T15:30:22.941Z,91.08
2018-07-08T15:32:54.189Z,89.59
2018-07-08T15:35:26.377Z,93.57
2018-07-08T15:37:57.755Z,96.23
2018-07-08T15:40:30.616Z,97.60
2018-07-08T15:43:01.934Z,97.32
2018-07-08T15:45:34.493Z,98.39
2018-07-08T15:48:06.618Z,100.00
2018-07-08T15:50:39.925Z,100.00
2018-07-08T15:53:11.224Z,100.00
2018-07-08T15:55:42.645Z,100.00
2018-07-08T15:58:14.719Z,100.00
2018-07-08T16:00:46.688Z,100.00
2018-07-08T16:03:17.967Z,100.00
2018-07-08T16:05:50.272Z,100.00
2018-07-08T16:08:21.938Z,100.00
2018-07-08T16:10:55.378Z,100.00
2018-07-08T16:13:28.519Z,100.00
2018-07-08T16:16:00.159Z,99.52
2018-07-08T16:18:33.574Z,99.10
2018-07-08T16:21:05.163Z,99.55
2018-07-08T16:23:37.021Z,100.00
2018-07-08T16:26:08.202Z,100.00
2018-07-08T16:28:40.061Z,100.00
2018-07-08T16:31:11.120Z,100.00
2018-07-08T16:33:42.277Z,100.00
2018-07-08T16:36:14.600Z,100.00
2018-07-08T16:38:45.960Z,100.00
2018-07-08T16:41:17.249Z,100.00
2018-07-08T16:43:48.344Z,99.61
2018-07-08T16:46:21.219Z,99.91
2018-07-08T16:48:52.436Z,99.94
2018-07-08T16:51:24.404Z,100.00
2018-07-08T16:53:55.679Z,100.00
2018-07-08T16:56:28.679Z,100.00
2018-07-08T16:59:03.360Z,100.00
2018-07-08T17:01:34.994Z,100.00
2018-07-08T17:04:07.770Z,100.00
2018-07-08T17:06:44.538Z,100.00
2018-07-08T17:09:15.794Z,100.00
2018-07-08T17:11:47.863Z,100.00
2018-07-08T17:14:19.554Z,100.00
2018-07-08T17:16:51.896Z,100.00
2018-07-08T17:19:24.281Z,100.00
2018-07-08T17:21:55.827Z,100.00
2018-07-08T17:24:27.004Z,100.00
2018-07-08T17:26:58.828Z,100.00
2018-07-08T17:29:31.055Z,100.00
2018-07-08T17:32:02.208Z,100.00
2018-07-08T17:34:34.479Z,100.00
2018-07-08T17:37:07.661Z,100.00
2018-07-08T17:39:43.907Z,100.00
2018-07-08T17:42:17.019Z,100.00
2018-07-08T17:44:48.763Z,100.00
2018-07-08T17:47:20.184Z,100.00
2018-07-08T17:49:51.482Z,100.00
2018-07-08T17:52:25.057Z,100.00
2018-07-08T17:54:57.404Z,100.00
2018-07-08T17:57:29.381Z,100.00
2018-07-08T18:00:00.562Z,100.00
2018-07-08T18:02:34.718Z,100.00
2018-07-08T18:05:06.847Z,100.00
2018-07-08T18:07:39.561Z,100.00
2018-07-08T18:10:11.386Z,100.00
2018-07-08T18:12:43.706Z,100.00
2018-07-08T18:15:15.718Z,100.00
2018-07-08T18:17:50.979Z,100.00
2018-07-08T18:20:22.164Z,100.00
2018-07-08T18:22:54.481Z,100.00
2018-07-08T18:25:31.731Z,100.00
2018-07-08T18:28:03.426Z,100.00
2018-07-08T18:30:37.245Z,100.00
2018-07-08T18:33:08.368Z,100.00
2018-07-08T18:35:39.872Z,100.00
2018-07-08T18:38:12.450Z,100.00
2018-07-08T18:40:43.868Z,100.00
2018-07-08T18:43:22.739Z,100.00
2018-07-08T18:45:54.579Z,100.00
2018-07-08T18:48:27.534Z,100.00
2018-07-08T18:50:58.794Z,100.00
2018-07-08T18:53:30.584Z,100.00
2018-07-08T18:58:42.809Z,100.00
2018-07-08T19:01:15.157Z,100.00
2018-07-08T19:03:50.414Z,100.00
2018-07-08T19:06:22.175Z,100.00
2018-07-08T19:08:56.122Z,100.00
2018-07-08T19:11:27.476Z,100.00
2018-07-08T19:14:00.162Z,100.00
2018-07-08T19:16:32.346Z,100.00
2018-07-08T19:19:03.919Z,100.00
2018-07-08T19:21:35.481Z,100.00
2018-07-08T19:24:13.257Z,100.00
2018-07-08T19:26:47.518Z,100.00
2018-07-08T19:29:19.049Z,100.00
2018-07-08T19:31:50.561Z,100.00
2018-07-08T19:34:23.956Z,100.00
2018-07-08T19:36:55.341Z,100.00
2018-07-08T19:39:27.197Z,100.00
2018-07-08T19:41:58.989Z,100.00
2018-07-08T19:44:31.978Z,100.00
2018-07-08T19:47:03.823Z,100.00
2018-07-08T19:49:36.271Z,100.00
2018-07-08T19:52:08.215Z,100.00
2018-07-08T19:54:46.095Z,100.00
2018-07-08T19:57:17.495Z,100.00
2018-07-08T19:59:49.005Z,100.00
2018-07-08T20:02:20.041Z,100.00
2018-07-08T20:04:51.609Z,100.00
2018-07-08T20:07:22.855Z,100.00
2018-07-08T20:09:54.208Z,100.00
2018-07-08T20:12:25.470Z,100.00
2018-07-08T20:14:57.037Z,100.00
2018-07-08T20:17:28.491Z,100.00
2018-07-08T20:19:59.845Z,100.00
2018-07-08T20:22:31.412Z,100.00
2018-07-08T20:25:02.847Z,100.00
2018-07-08T20:27:34.583Z,100.00
2018-07-08T20:30:06.962Z,100.00
2018-07-08T20:32:38.074Z,100.00
2018-07-08T20:35:09.727Z,100.00
2018-07-08T20:37:40.607Z,100.00
2018-07-08T20:40:11.561Z,100.00
2018-07-08T20:42:42.999Z,100.00
2018-07-08T20:45:14.521Z,100.00
2018-07-08T20:47:46.109Z,100.00
2018-07-08T20:50:17.408Z,100.00
2018-07-08T20:52:48.681Z,100.00
2018-07-08T20:55:20.428Z,100.00
2018-07-08T20:57:53.606Z,100.00
2018-07-08T21:00:24.929Z,100.00
2018-07-08T21:02:58.158Z,100.00
2018-07-08T21:05:30.313Z,100.00
2018-07-08T21:08:06.648Z,100.00
2018-07-08T21:10:40.231Z,100.00
2018-07-08T21:13:16.021Z,100.00
2018-07-08T21:15:49.173Z,100.00
2018-07-08T21:18:20.935Z,100.00
2018-07-08T21:20:53.307Z,100.00
2018-07-08T21:23:24.926Z,100.00
2018-07-08T21:26:00.309Z,100.00
2018-07-08T21:28:33.674Z,100.00
2018-07-08T21:31:05.157Z,100.00
2018-07-08T21:33:37.276Z,100.00
2018-07-08T21:36:10.305Z,100.00
2018-07-08T21:38:43.902Z,100.00
2018-07-08T21:41:19.120Z,100.00
2018-07-08T21:43:50.300Z,100.00
2018-07-08T21:46:21.764Z,100.00
2018-07-08T21:48:54.631Z,100.00
2018-07-08T21:51:26.083Z,100.00
2018-07-08T21:53:57.959Z,100.00
2018-07-08T21:56:29.722Z,100.00
2018-07-08T21:59:04.323Z,100.00
2018-07-08T22:02:19.599Z,100.00
2018-07-08T22:04:51.603Z,100.00
2018-07-08T22:07:25.035Z,100.00
2018-07-08T22:09:56.364Z,100.00
2018-07-08T22:12:27.914Z,100.00
2018-07-08T22:15:00.279Z,100.00
2018-07-08T22:17:32.087Z,100.00
2018-07-08T22:20:04.719Z,100.00
2018-07-08T22:22:40.740Z,100.00
2018-07-08T22:25:13.565Z,100.00
2018-07-08T22:27:45.574Z,100.00
2018-07-08T22:30:18.016Z,100.00
2018-07-08T22:32:50.800Z,100.00
2018-07-08T22:35:23.111Z,100.00
2018-07-08T22:37:54.542Z,100.00
2018-07-08T22:40:26.897Z,100.00
2018-07-08T22:42:58.491Z,100.00
2018-07-08T22:45:29.606Z,100.00
2018-07-08T22:48:00.584Z,100.00
2018-07-08T22:50:32.380Z,100.00
2018-07-08T23:38:05.376Z,100.00
2018-07-08T23:40:36.445Z,100.00
2018-07-08T23:43:09.575Z,100.00
2018-07-08T23:45:40.695Z,100.00
2018-07-08T23:48:11.848Z,100.00
2018-07-08T23:50:43.032Z,100.00
2018-07-08T23:53:14.352Z,100.00
2018-07-08T23:55:45.527Z,100.00
2018-07-08T23:58:16.646Z,100.00
